createdAt,value
2018-07-28T00:00:57.898Z,950.33
2018-07-28T00:01:57.886Z,950.33
2018-07-28T00:02:57.883Z,950.36
2018-07-28T00:03:57.881Z,950.31
2018-07-28T00:04:57.881Z,950.32
2018-07-28T00:05:57.888Z,950.3
2018-07-28T00:06:57.874Z,950.32
2018-07-28T00:07:57.872Z,950.32
2018-07-28T00:08:57.868Z,950.29
2018-07-28T00:09:57.865Z,950.28
2018-07-28T00:10:57.863Z,950.28
2018-07-28T00:11:57.861Z,950.28
2018-07-28T00:12:57.857Z,950.27
2018-07-28T00:13:57.856Z,950.28
2018-07-28T00:14:57.852Z,950.31
2018-07-28T00:15:57.851Z,950.31
2018-07-28T00:16:57.848Z,950.28
2018-07-28T00:17:57.845Z,950.26
2018-07-28T00:18:57.842Z,950.25
2018-07-28T00:19:57.838Z,950.3
2018-07-28T00:20:57.837Z,950.3
2018-07-28T00:21:57.833Z,950.27
2018-07-28T00:22:57.831Z,950.26
2018-07-28T00:23:57.828Z,950.24
2018-07-28T00:24:57.824Z,950.24
2018-07-28T00:25:57.824Z,950.23
2018-07-28T00:26:57.820Z,950.2
2018-07-28T00:27:57.817Z,950.2
2018-07-28T00:28:57.815Z,950.2
2018-07-28T00:29:57.811Z,950.2
2018-07-28T00:30:57.808Z,950.21
2018-07-28T00:31:57.805Z,950.2
2018-07-28T00:32:57.803Z,950.21
2018-07-28T00:33:57.801Z,950.18
2018-07-28T00:34:57.802Z,950.13
2018-07-28T00:35:57.794Z,950.16
2018-07-28T00:36:57.792Z,950.18
2018-07-28T00:37:57.790Z,950.15
2018-07-28T00:38:57.785Z,950.12
2018-07-28T00:39:57.782Z,950.14
2018-07-28T00:40:57.781Z,950.16
2018-07-28T00:41:57.777Z,950.16
2018-07-28T00:42:57.774Z,950.16
2018-07-28T00:43:57.772Z,950.1
2018-07-28T00:44:57.770Z,950.14
2018-07-28T00:45:57.766Z,950.15
2018-07-28T00:46:57.764Z,950.12
2018-07-28T00:47:57.765Z,950.11
2018-07-28T00:48:57.760Z,950.15
2018-07-28T00:49:57.753Z,950.15
2018-07-28T00:50:57.751Z,950.12
2018-07-28T00:51:57.748Z,950.13
2018-07-28T00:52:57.750Z,950.09
2018-07-28T00:53:57.741Z,950.06
2018-07-28T00:54:57.746Z,950.03
2018-07-28T00:55:57.738Z,950.04
2018-07-28T00:56:57.734Z,950.04
2018-07-28T00:57:57.731Z,950.03
2018-07-28T00:58:57.728Z,950
2018-07-28T00:59:57.725Z,950
2018-07-28T01:00:57.721Z,950.01
2018-07-28T01:01:57.720Z,950.02
2018-07-28T01:02:57.714Z,949.98
2018-07-28T01:03:57.710Z,949.97
2018-07-28T01:04:57.712Z,950.03
2018-07-28T01:05:57.704Z,950.04
2018-07-28T01:06:57.702Z,950
2018-07-28T01:07:57.699Z,949.99
2018-07-28T01:08:57.696Z,950.01
2018-07-28T01:09:57.692Z,949.99
2018-07-28T01:10:57.688Z,950.01
2018-07-28T01:11:57.689Z,950.02
2018-07-28T01:12:57.684Z,950.01
2018-07-28T01:13:57.680Z,949.99
2018-07-28T01:14:57.679Z,950.02
2018-07-28T01:15:57.672Z,949.97
2018-07-28T01:16:57.671Z,949.94
2018-07-28T01:17:57.667Z,949.96
2018-07-28T01:18:57.664Z,949.93
2018-07-28T01:19:57.659Z,949.98
2018-07-28T01:20:57.661Z,949.98
2018-07-28T01:21:57.652Z,949.94
2018-07-28T01:22:57.650Z,949.94
2018-07-28T01:23:57.647Z,949.94
2018-07-28T01:24:57.644Z,949.95
2018-07-28T01:25:57.640Z,949.96
2018-07-28T01:26:57.637Z,949.97
2018-07-28T01:27:57.633Z,950
2018-07-28T01:28:57.630Z,950
2018-07-28T01:29:57.625Z,949.99
2018-07-28T01:30:57.623Z,949.98
2018-07-28T01:31:57.619Z,949.96
2018-07-28T01:32:57.617Z,949.95
2018-07-28T01:33:57.612Z,949.91
2018-07-28T01:34:57.608Z,949.9
2018-07-28T01:35:57.606Z,949.87
2018-07-28T01:36:57.601Z,949.86
2018-07-28T01:37:57.598Z,949.88
2018-07-28T01:38:57.595Z,949.86
2018-07-28T01:39:57.590Z,949.83
2018-07-28T01:40:57.587Z,949.83
2018-07-28T01:41:57.584Z,949.81
2018-07-28T01:42:57.581Z,949.79
2018-07-28T01:43:57.577Z,949.78
2018-07-28T01:44:57.573Z,949.77
2018-07-28T01:45:57.569Z,949.75
2018-07-28T01:46:57.565Z,949.78
2018-07-28T01:47:57.562Z,949.75
2018-07-28T01:48:57.559Z,949.81
2018-07-28T01:49:57.555Z,949.73
2018-07-28T01:50:57.552Z,949.77
2018-07-28T01:51:57.547Z,949.76
2018-07-28T01:52:57.544Z,949.77
2018-07-28T01:53:57.540Z,949.8
2018-07-28T01:54:57.535Z,949.77
2018-07-28T01:55:57.531Z,949.74
2018-07-28T01:56:57.529Z,949.78
2018-07-28T01:57:57.526Z,949.78
2018-07-28T01:58:57.535Z,949.75
2018-07-28T01:59:57.521Z,949.8
2018-07-28T02:00:57.514Z,949.76
2018-07-28T02:01:57.512Z,949.74
2018-07-28T02:02:57.506Z,949.75
2018-07-28T02:03:57.502Z,949.71
2018-07-28T02:04:57.500Z,949.72
2018-07-28T02:05:57.494Z,949.74
2018-07-28T02:06:57.490Z,949.74
2018-07-28T02:07:57.488Z,949.71
2018-07-28T02:08:57.492Z,949.7
2018-07-28T02:09:57.481Z,949.66
2018-07-28T02:10:57.476Z,949.62
2018-07-28T02:11:57.473Z,949.61
2018-07-28T02:12:57.469Z,949.57
2018-07-28T02:13:57.470Z,949.57
2018-07-28T02:14:57.461Z,949.57
2018-07-28T02:15:57.457Z,949.53
2018-07-28T02:16:57.453Z,949.55
2018-07-28T02:17:57.450Z,949.56
2018-07-28T02:18:57.445Z,949.53
2018-07-28T02:19:57.443Z,949.5
2018-07-28T02:20:57.438Z,949.49
2018-07-28T02:21:57.434Z,949.5
2018-07-28T02:22:57.434Z,949.45
2018-07-28T02:23:57.428Z,949.46
2018-07-28T02:24:57.423Z,949.42
2018-07-28T02:25:57.419Z,949.4
2018-07-28T02:26:57.415Z,949.42
2018-07-28T02:27:57.415Z,949.42
2018-07-28T02:28:57.453Z,949.41
2018-07-28T02:29:57.404Z,949.36
2018-07-28T02:30:57.400Z,949.39
2018-07-28T02:31:57.397Z,949.39
2018-07-28T02:32:57.393Z,949.4
2018-07-28T02:33:57.390Z,949.38
2018-07-28T02:34:57.390Z,949.39
2018-07-28T02:35:57.383Z,949.38
2018-07-28T02:36:57.378Z,949.37
2018-07-28T02:37:57.375Z,949.41
2018-07-28T02:38:57.369Z,949.4
2018-07-28T02:39:57.369Z,949.4
2018-07-28T02:40:57.364Z,949.39
2018-07-28T02:41:57.359Z,949.41
2018-07-28T02:42:57.355Z,949.36
2018-07-28T02:43:57.350Z,949.4
2018-07-28T02:44:57.345Z,949.4
2018-07-28T02:45:57.343Z,949.37
2018-07-28T02:46:57.343Z,949.39
2018-07-28T02:47:57.335Z,949.39
2018-07-28T02:48:57.337Z,949.36
2018-07-28T02:49:57.326Z,949.32
2018-07-28T02:50:57.324Z,949.32
2018-07-28T02:51:57.319Z,949.28
2018-07-28T02:52:57.317Z,949.26
2018-07-28T02:53:57.313Z,949.29
2018-07-28T02:54:57.308Z,949.28
2018-07-28T02:55:57.305Z,949.29
2018-07-28T02:56:57.301Z,949.29
2018-07-28T02:57:57.296Z,949.29
2018-07-28T02:58:57.293Z,949.28
2018-07-28T02:59:57.288Z,949.33
2018-07-28T03:00:57.284Z,949.31
2018-07-28T03:01:57.283Z,949.35
2018-07-28T03:02:57.275Z,949.31
2018-07-28T03:03:57.273Z,949.35
2018-07-28T03:04:57.268Z,949.36
2018-07-28T03:05:57.265Z,949.36
2018-07-28T03:06:57.260Z,949.33
2018-07-28T03:07:57.257Z,949.33
2018-07-28T03:08:57.253Z,949.29
2018-07-28T03:09:57.248Z,949.32
2018-07-28T03:10:57.249Z,949.34
2018-07-28T03:11:57.239Z,949.35
2018-07-28T03:12:57.236Z,949.32
2018-07-28T03:13:57.233Z,949.33
2018-07-28T03:14:57.232Z,949.3
2018-07-28T03:15:57.223Z,949.25
2018-07-28T03:16:57.220Z,949.3
2018-07-28T03:17:57.218Z,949.28
2018-07-28T03:18:57.213Z,949.27
2018-07-28T03:19:57.209Z,949.26
2018-07-28T03:20:57.205Z,949.2
2018-07-28T03:21:57.209Z,949.18
2018-07-28T03:22:57.198Z,949.15
2018-07-28T03:23:57.192Z,949.19
2018-07-28T03:24:57.189Z,949.18
2018-07-28T03:25:57.186Z,949.14
2018-07-28T03:26:57.179Z,949.12
2018-07-28T03:27:57.175Z,949.12
2018-07-28T03:28:57.172Z,949.14
2018-07-28T03:29:57.167Z,949.19
2018-07-28T03:30:57.166Z,949.14
2018-07-28T03:31:57.161Z,949.15
2018-07-28T03:32:57.155Z,949.16
2018-07-28T03:33:57.151Z,949.12
2018-07-28T03:34:57.148Z,949.1
2018-07-28T03:35:57.145Z,949.14
2018-07-28T03:36:57.142Z,949.12
2018-07-28T03:37:57.136Z,949.08
2018-07-28T03:38:57.131Z,949.11
2018-07-28T03:39:57.129Z,949.13
2018-07-28T03:40:57.123Z,949.12
2018-07-28T03:41:57.118Z,949.21
2018-07-28T03:42:57.114Z,949.18
2018-07-28T03:43:57.111Z,949.17
2018-07-28T03:44:57.104Z,949.22
2018-07-28T03:45:57.102Z,949.21
2018-07-28T03:46:57.097Z,949.21
2018-07-28T03:47:57.095Z,949.21
2018-07-28T03:48:57.090Z,949.2
2018-07-28T03:49:57.087Z,949.22
2018-07-28T03:50:57.081Z,949.19
2018-07-28T03:51:57.076Z,949.27
2018-07-28T03:52:57.073Z,949.25
2018-07-28T03:53:57.068Z,949.26
2018-07-28T03:54:57.064Z,949.29
2018-07-28T03:55:57.059Z,949.3
2018-07-28T03:56:57.059Z,949.27
2018-07-28T03:57:57.051Z,949.33
2018-07-28T03:58:57.047Z,949.34
2018-07-28T03:59:57.043Z,949.31
2018-07-28T04:00:57.038Z,949.35
2018-07-28T04:01:57.040Z,949.36
2018-07-28T04:02:57.028Z,949.35
2018-07-28T04:03:57.024Z,949.33
2018-07-28T04:04:57.022Z,949.31
2018-07-28T04:05:57.021Z,949.35
2018-07-28T04:06:57.011Z,949.35
2018-07-28T04:07:57.007Z,949.35
2018-07-28T04:08:57.003Z,949.33
2018-07-28T04:09:56.999Z,949.31
2018-07-28T04:10:56.994Z,949.29
2018-07-28T04:11:56.995Z,949.29
2018-07-28T04:12:56.987Z,949.3
2018-07-28T04:13:56.981Z,949.25
2018-07-28T04:14:56.977Z,949.24
2018-07-28T04:15:56.974Z,949.27
2018-07-28T04:16:56.972Z,949.29
2018-07-28T04:17:56.966Z,949.26
2018-07-28T04:18:56.961Z,949.26
2018-07-28T04:19:56.958Z,949.27
2018-07-28T04:20:56.954Z,949.26
2018-07-28T04:21:56.948Z,949.27
2018-07-28T04:22:56.945Z,949.29
2018-07-28T04:23:56.942Z,949.27
2018-07-28T04:24:56.937Z,949.29
2018-07-28T04:25:56.932Z,949.28
2018-07-28T04:26:56.933Z,949.33
2018-07-28T04:27:56.928Z,949.3
2018-07-28T04:28:56.922Z,949.29
2018-07-28T04:29:56.918Z,949.32
2018-07-28T04:30:56.915Z,949.33
2018-07-28T04:31:56.958Z,949.36
2018-07-28T04:32:56.904Z,949.32
2018-07-28T04:33:56.900Z,949.34
2018-07-28T04:34:56.897Z,949.32
2018-07-28T04:35:56.891Z,949.32
2018-07-28T04:36:56.935Z,949.31
2018-07-28T04:37:56.884Z,949.29
2018-07-28T04:38:56.880Z,949.27
2018-07-28T04:39:56.876Z,949.25
2018-07-28T04:40:56.876Z,949.24
2018-07-28T04:41:56.868Z,949.24
2018-07-28T04:42:56.870Z,949.25
2018-07-28T04:43:56.885Z,949.26
2018-07-28T04:44:56.857Z,949.27
2018-07-28T04:45:56.853Z,949.29
2018-07-28T04:46:56.848Z,949.3
2018-07-28T04:47:56.846Z,949.29
2018-07-28T04:48:56.841Z,949.3
2018-07-28T04:49:56.838Z,949.29
2018-07-28T04:50:56.833Z,949.3
2018-07-28T04:51:56.831Z,949.29
2018-07-28T04:52:56.827Z,949.25
2018-07-28T04:53:56.823Z,949.24
2018-07-28T04:54:56.819Z,949.25
2018-07-28T04:55:56.815Z,949.22
2018-07-28T04:56:56.813Z,949.2
2018-07-28T04:57:56.808Z,949.25
2018-07-28T04:58:56.805Z,949.26
2018-07-28T04:59:56.803Z,949.26
2018-07-28T05:00:56.797Z,949.27
2018-07-28T05:01:56.794Z,949.29
2018-07-28T05:02:56.791Z,949.3
2018-07-28T05:03:56.787Z,949.27
2018-07-28T05:04:56.783Z,949.28
2018-07-28T05:05:56.780Z,949.26
2018-07-28T05:06:56.778Z,949.26
2018-07-28T05:07:56.774Z,949.24
2018-07-28T05:08:56.771Z,949.21
2018-07-28T05:09:56.767Z,949.21
2018-07-28T05:10:56.764Z,949.25
2018-07-28T05:11:56.761Z,949.18
2018-07-28T05:12:56.758Z,949.15
2018-07-28T05:13:56.754Z,949.17
2018-07-28T05:14:56.750Z,949.18
2018-07-28T05:15:56.782Z,949.17
2018-07-28T05:16:56.745Z,949.14
2018-07-28T05:17:56.742Z,949.13
2018-07-28T05:18:56.739Z,949.1
2018-07-28T05:19:56.735Z,949.14
2018-07-28T05:20:56.732Z,949.09
2018-07-28T05:21:56.730Z,949.13
2018-07-28T05:22:56.728Z,949.1
2018-07-28T05:23:56.725Z,949.12
2018-07-28T05:24:56.723Z,949.15
2018-07-28T05:25:56.719Z,949.14
2018-07-28T05:26:56.714Z,949.14
2018-07-28T05:27:56.712Z,949.13
2018-07-28T05:28:56.709Z,949.17
2018-07-28T05:29:56.708Z,949.17
2018-07-28T05:30:56.704Z,949.14
2018-07-28T05:31:56.702Z,949.16
2018-07-28T05:32:56.700Z,949.12
2018-07-28T05:33:56.696Z,949.17
2018-07-28T05:34:56.694Z,949.15
2018-07-28T05:35:56.692Z,949.11
2018-07-28T05:36:56.693Z,949.1
2018-07-28T05:37:56.688Z,949.14
2018-07-28T05:38:56.708Z,949.12
2018-07-28T05:39:56.684Z,949.13
2018-07-28T05:40:56.681Z,949.13
2018-07-28T05:41:56.678Z,949.14
2018-07-28T05:42:56.677Z,949.13
2018-07-28T05:43:56.675Z,949.12
2018-07-28T05:44:56.673Z,949.1
2018-07-28T05:45:56.672Z,949.09
2018-07-28T05:46:56.669Z,949.11
2018-07-28T05:47:56.668Z,949.09
2018-07-28T05:48:56.666Z,949.07
2018-07-28T05:49:56.665Z,949.06
2018-07-28T05:50:56.665Z,949.09
2018-07-28T05:51:56.664Z,949.05
2018-07-28T05:52:56.658Z,949.05
2018-07-28T05:53:56.659Z,949.04
2018-07-28T05:54:56.657Z,949.05
2018-07-28T05:55:56.655Z,949.02
2018-07-28T05:56:56.655Z,949.1
2018-07-28T05:57:56.654Z,949.05
2018-07-28T05:58:56.653Z,949.07
2018-07-28T05:59:56.651Z,949.09
2018-07-28T06:00:56.649Z,949.11
2018-07-28T06:01:56.648Z,949.14
2018-07-28T06:02:56.647Z,949.09
2018-07-28T06:03:56.647Z,949.08
2018-07-28T06:04:56.645Z,949.09
2018-07-28T06:05:56.645Z,949.07
2018-07-28T06:06:56.644Z,949.06
2018-07-28T06:07:56.647Z,949.06
2018-07-28T06:08:56.642Z,949.1
2018-07-28T06:09:56.642Z,949.07
2018-07-28T06:10:56.640Z,949.05
2018-07-28T06:11:56.640Z,949.06
2018-07-28T06:12:56.641Z,949.01
2018-07-28T06:13:56.639Z,949.03
2018-07-28T06:14:56.636Z,949
2018-07-28T06:15:56.640Z,948.95
2018-07-28T06:16:56.634Z,948.93
2018-07-28T06:17:56.635Z,948.91
2018-07-28T06:18:56.636Z,948.93
2018-07-28T06:19:56.636Z,948.93
2018-07-28T06:20:56.633Z,948.92
2018-07-28T06:21:56.677Z,948.92
2018-07-28T06:22:56.631Z,948.91
2018-07-28T06:23:56.631Z,948.92
2018-07-28T06:24:56.631Z,948.89
2018-07-28T06:25:56.641Z,948.87
2018-07-28T06:26:56.629Z,948.89
2018-07-28T06:27:56.630Z,948.91
2018-07-28T06:28:56.629Z,948.93
2018-07-28T06:29:56.630Z,948.89
2018-07-28T06:30:56.629Z,948.95
2018-07-28T06:31:56.689Z,948.91
2018-07-28T06:32:56.627Z,948.96
2018-07-28T06:33:56.629Z,948.94
2018-07-28T06:34:56.629Z,948.94
2018-07-28T06:35:56.628Z,948.95
2018-07-28T06:36:56.629Z,948.94
2018-07-28T06:37:56.630Z,948.93
2018-07-28T06:38:56.632Z,948.95
2018-07-28T06:39:56.628Z,948.95
2018-07-28T06:40:56.628Z,948.93
2018-07-28T06:41:56.629Z,948.94
2018-07-28T06:42:56.629Z,948.95
2018-07-28T06:43:56.630Z,948.95
2018-07-28T06:44:56.630Z,948.98
2018-07-28T06:45:56.631Z,948.93
2018-07-28T06:46:56.631Z,948.94
2018-07-28T06:47:56.630Z,948.95
2018-07-28T06:48:56.632Z,948.94
2018-07-28T06:49:56.637Z,948.97
2018-07-28T06:50:56.633Z,948.96
2018-07-28T06:51:56.633Z,948.93
2018-07-28T06:52:56.634Z,948.94
2018-07-28T06:53:56.636Z,948.9
2018-07-28T06:54:56.636Z,948.91
2018-07-28T06:55:56.637Z,948.98
2018-07-28T06:56:56.641Z,949.01
2018-07-28T06:57:56.642Z,949.06
2018-07-28T06:58:56.644Z,949
2018-07-28T06:59:56.646Z,949
2018-07-28T07:00:56.649Z,949.04
2018-07-28T07:01:56.650Z,949.01
2018-07-28T07:02:56.655Z,949.02
2018-07-28T07:03:56.658Z,949.02
2018-07-28T07:04:56.661Z,949.02
2018-07-28T07:05:56.665Z,949.04
2018-07-28T07:06:56.669Z,949.01
2018-07-28T07:07:56.675Z,948.97
2018-07-28T07:08:56.679Z,949.01
2018-07-28T07:09:56.683Z,948.97
2018-07-28T07:10:56.689Z,949.05
2018-07-28T07:11:56.693Z,949.04
2018-07-28T07:12:56.699Z,949.03
2018-07-28T07:13:56.704Z,949.05
2018-07-28T07:14:56.711Z,949.04
2018-07-28T07:15:56.718Z,949.06
2018-07-28T07:16:56.723Z,949.09
2018-07-28T07:17:56.731Z,949.1
2018-07-28T07:18:56.738Z,949.07
2018-07-28T07:19:56.745Z,949.06
2018-07-28T07:20:56.752Z,949.05
2018-07-28T07:21:56.761Z,949.02
2018-07-28T07:22:56.767Z,949.07
2018-07-28T07:23:56.775Z,949.04
2018-07-28T07:24:56.783Z,949.1
2018-07-28T07:25:56.790Z,949.08
2018-07-28T07:26:56.803Z,949.09
2018-07-28T07:27:56.808Z,949.08
2018-07-28T07:28:56.815Z,949.1
2018-07-28T07:29:56.824Z,949.1
2018-07-28T07:30:56.835Z,949.1
2018-07-28T07:31:56.844Z,949.09
2018-07-28T07:32:56.852Z,949.1
2018-07-28T07:33:56.863Z,949.14
2018-07-28T07:34:56.871Z,949.12
2018-07-28T07:35:56.880Z,949.16
2018-07-28T07:36:56.891Z,949.11
2018-07-28T07:37:56.902Z,949.02
2018-07-28T07:38:56.910Z,949.06
2018-07-28T07:39:56.919Z,949.13
2018-07-28T07:40:56.930Z,949.05
2018-07-28T07:41:56.943Z,949.14
2018-07-28T07:42:56.951Z,949.3
2018-07-28T07:43:56.960Z,949.2
2018-07-28T07:44:56.970Z,949.31
2018-07-28T07:45:56.980Z,949.3
2018-07-28T07:46:56.990Z,949.17
2018-07-28T07:47:57.001Z,949.1
2018-07-28T07:48:57.011Z,949.08
2018-07-28T07:49:57.020Z,949.14
2018-07-28T07:50:57.030Z,949.12
2018-07-28T07:51:57.041Z,949.16
2018-07-28T07:52:57.050Z,949.17
2018-07-28T07:53:57.106Z,949.18
2018-07-28T07:54:57.068Z,949.43
2018-07-28T07:55:57.079Z,949.41
2018-07-28T07:56:57.087Z,949.28
2018-07-28T07:57:57.096Z,949.18
2018-07-28T07:58:57.106Z,949.16
2018-07-28T07:59:57.116Z,949.15
2018-07-28T08:00:57.123Z,949.15
2018-07-28T08:01:57.132Z,949.18
2018-07-28T08:02:57.141Z,949.14
2018-07-28T08:03:57.149Z,949.14
2018-07-28T08:04:57.173Z,949.14
2018-07-28T08:05:57.167Z,949.11
2018-07-28T08:06:57.176Z,949.08
2018-07-28T08:07:57.183Z,949.11
2018-07-28T08:08:57.195Z,949.1
2018-07-28T08:09:57.201Z,949.11
2018-07-28T08:10:57.214Z,949.13
2018-07-28T08:11:57.217Z,949.1
2018-07-28T08:12:57.227Z,949.09
2018-07-28T08:13:57.235Z,949.06
2018-07-28T08:14:57.241Z,949.06
2018-07-28T08:15:57.251Z,949.07
2018-07-28T08:16:57.258Z,949.03
2018-07-28T08:17:57.267Z,949.06
2018-07-28T08:18:57.273Z,949.04
2018-07-28T08:19:57.281Z,949.04
2018-07-28T08:20:57.315Z,949.02
2018-07-28T08:21:57.299Z,949.01
2018-07-28T08:22:57.306Z,949.01
2018-07-28T08:23:57.313Z,949
2018-07-28T08:24:57.323Z,948.94
2018-07-28T08:25:57.331Z,948.92
2018-07-28T08:26:57.336Z,948.91
2018-07-28T08:27:57.346Z,948.93
2018-07-28T08:28:57.351Z,948.87
2018-07-28T08:29:57.356Z,948.85
2018-07-28T08:30:57.364Z,948.87
2018-07-28T08:31:57.373Z,948.83
2018-07-28T08:32:57.380Z,948.87
2018-07-28T08:33:57.385Z,948.89
2018-07-28T08:34:57.394Z,948.89
2018-07-28T08:35:57.401Z,948.9
2018-07-28T08:36:57.405Z,948.87
2018-07-28T08:37:57.490Z,948.88
2018-07-28T08:38:57.420Z,948.91
2018-07-28T08:39:57.544Z,948.87
2018-07-28T08:40:57.433Z,948.88
2018-07-28T08:41:57.441Z,948.87
2018-07-28T08:42:57.452Z,948.85
2018-07-28T08:43:57.456Z,948.82
2018-07-28T08:44:57.461Z,948.82
2018-07-28T08:45:57.471Z,948.82
2018-07-28T08:46:57.477Z,948.82
2018-07-28T08:47:57.483Z,948.77
2018-07-28T08:48:57.565Z,948.77
2018-07-28T08:49:57.497Z,948.86
2018-07-28T08:50:57.505Z,948.79
2018-07-28T08:51:57.509Z,948.8
2018-07-28T08:52:57.517Z,948.79
2018-07-28T08:53:57.527Z,948.78
2018-07-28T08:54:57.534Z,948.82
2018-07-28T08:55:57.537Z,948.81
2018-07-28T08:56:57.543Z,948.78
2018-07-28T08:57:57.550Z,948.75
2018-07-28T08:58:57.556Z,948.79
2018-07-28T08:59:57.562Z,948.78
2018-07-28T09:00:57.570Z,948.75
2018-07-28T09:01:57.580Z,948.79
2018-07-28T09:02:57.580Z,948.81
2018-07-28T09:03:57.590Z,948.79
2018-07-28T09:04:57.594Z,948.73
2018-07-28T09:05:57.657Z,948.73
2018-07-28T09:06:57.608Z,948.8
2018-07-28T09:07:57.614Z,948.79
2018-07-28T09:08:57.626Z,948.82
2018-07-28T09:09:57.626Z,948.78
2018-07-28T09:10:57.632Z,948.82
2018-07-28T09:11:57.639Z,948.77
2018-07-28T09:12:57.648Z,948.79
2018-07-28T09:13:57.650Z,948.74
2018-07-28T09:14:57.655Z,948.84
2018-07-28T09:15:57.660Z,948.81
2018-07-28T09:16:57.665Z,948.84
2018-07-28T09:17:57.674Z,948.81
2018-07-28T09:18:57.678Z,948.83
2018-07-28T09:19:57.684Z,948.8
2018-07-28T09:20:57.688Z,948.85
2018-07-28T09:21:57.692Z,948.78
2018-07-28T09:22:57.702Z,948.81
2018-07-28T09:23:57.709Z,948.85
2018-07-28T09:24:57.706Z,948.9
2018-07-28T09:25:57.715Z,948.91
2018-07-28T09:26:57.717Z,948.94
2018-07-28T09:27:57.722Z,948.9
2018-07-28T09:28:57.727Z,948.89
2018-07-28T09:29:57.732Z,948.94
2018-07-28T09:30:57.737Z,948.94
2018-07-28T09:31:57.743Z,948.91
2018-07-28T09:32:57.747Z,948.92
2018-07-28T09:33:57.750Z,948.91
2018-07-28T09:34:57.755Z,948.91
2018-07-28T09:35:57.759Z,948.96
2018-07-28T09:36:57.801Z,948.93
2018-07-28T09:37:57.773Z,948.91
2018-07-28T09:38:57.774Z,948.91
2018-07-28T09:39:57.779Z,948.86
2018-07-28T09:40:57.784Z,948.83
2018-07-28T09:41:57.790Z,948.86
2018-07-28T09:42:57.794Z,948.8
2018-07-28T09:43:57.799Z,948.85
2018-07-28T09:44:57.804Z,948.84
2018-07-28T09:45:57.809Z,948.84
2018-07-28T09:46:57.870Z,948.82
2018-07-28T09:47:57.820Z,948.81
2018-07-28T09:48:57.825Z,948.82
2018-07-28T09:49:57.830Z,948.84
2018-07-28T09:50:57.836Z,948.85
2018-07-28T09:51:57.842Z,948.84
2018-07-28T09:52:57.848Z,948.79
2018-07-28T09:53:57.852Z,948.79
2018-07-28T09:54:57.859Z,948.82
2018-07-28T09:55:57.864Z,948.83
2018-07-28T09:56:57.869Z,948.86
2018-07-28T09:57:57.879Z,948.89
2018-07-28T09:58:57.881Z,948.85
2018-07-28T09:59:57.888Z,948.84
2018-07-28T10:00:57.892Z,948.83
2018-07-28T10:01:57.899Z,948.83
2018-07-28T10:02:57.905Z,948.83
2018-07-28T10:03:57.911Z,948.82
2018-07-28T10:04:57.916Z,948.83
2018-07-28T10:05:57.923Z,948.82
2018-07-28T10:06:57.933Z,948.82
2018-07-28T10:07:57.935Z,948.89
2018-07-28T10:08:57.941Z,948.81
2018-07-28T10:09:57.948Z,948.8
2018-07-28T10:10:57.954Z,948.78
2018-07-28T10:11:57.959Z,948.76
2018-07-28T10:12:57.966Z,948.77
2018-07-28T10:13:57.974Z,948.73
2018-07-28T10:14:57.979Z,948.71
2018-07-28T10:15:57.984Z,948.64
2018-07-28T10:16:57.990Z,948.7
2018-07-28T10:17:58.001Z,948.72
2018-07-28T10:18:58.004Z,948.67
2018-07-28T10:19:58.010Z,948.68
2018-07-28T10:20:58.017Z,948.68
2018-07-28T10:21:58.023Z,948.64
2018-07-28T10:22:58.074Z,948.67
2018-07-28T10:23:58.036Z,948.62
2018-07-28T10:24:58.043Z,948.65
2018-07-28T10:25:58.049Z,948.6
2018-07-28T10:26:58.054Z,948.62
2018-07-28T10:27:58.061Z,948.58
2018-07-28T10:28:58.068Z,948.57
2018-07-28T10:29:58.075Z,948.55
2018-07-28T10:30:58.081Z,948.53
2018-07-28T10:31:58.089Z,948.54
2018-07-28T10:32:58.095Z,948.6
2018-07-28T10:33:58.100Z,948.51
2018-07-28T10:34:58.106Z,948.41
2018-07-28T10:35:58.112Z,948.42
2018-07-28T10:36:58.121Z,948.38
2018-07-28T10:37:58.125Z,948.4
2018-07-28T10:38:58.132Z,948.41
2018-07-28T10:39:58.139Z,948.41
2018-07-28T10:40:58.147Z,948.44
2018-07-28T10:41:58.152Z,948.46
2018-07-28T10:42:58.160Z,948.48
2018-07-28T10:43:58.167Z,948.59
2018-07-28T10:44:58.171Z,948.6
2018-07-28T10:45:58.180Z,948.54
2018-07-28T10:46:58.185Z,948.54
2018-07-28T10:47:58.192Z,948.54
2018-07-28T10:48:58.199Z,948.56
2018-07-28T10:49:58.213Z,948.55
2018-07-28T10:50:58.212Z,948.56
2018-07-28T10:51:58.295Z,948.59
2018-07-28T10:52:58.225Z,948.56
2018-07-28T10:53:58.233Z,948.57
2018-07-28T10:54:58.239Z,948.61
2018-07-28T10:55:58.245Z,948.64
2018-07-28T10:56:58.253Z,948.62
2018-07-28T10:57:58.260Z,948.54
2018-07-28T10:58:58.266Z,948.54
2018-07-28T10:59:58.298Z,948.53
2018-07-28T11:00:58.280Z,948.62
2018-07-28T11:01:58.288Z,948.66
2018-07-28T11:02:58.302Z,948.63
2018-07-28T11:03:58.309Z,948.69
2018-07-28T11:04:58.309Z,948.65
2018-07-28T11:05:58.317Z,948.67
2018-07-28T11:06:58.322Z,948.68
2018-07-28T11:07:58.331Z,948.66
2018-07-28T11:08:58.343Z,948.65
2018-07-28T11:09:58.345Z,948.71
2018-07-28T11:10:58.354Z,948.68
2018-07-28T11:11:58.357Z,948.71
2018-07-28T11:12:58.365Z,948.72
2018-07-28T11:13:58.370Z,948.71
2018-07-28T11:14:58.379Z,948.79
2018-07-28T11:15:58.384Z,948.74
2018-07-28T11:16:58.391Z,948.74
2018-07-28T11:17:58.399Z,948.75
2018-07-28T11:18:58.434Z,948.77
2018-07-28T11:19:58.412Z,948.73
2018-07-28T11:20:58.423Z,948.73
2018-07-28T11:21:58.433Z,948.75
2018-07-28T11:22:58.436Z,948.73
2018-07-28T11:23:58.439Z,948.71
2018-07-28T11:24:58.443Z,948.63
2018-07-28T11:25:58.571Z,948.66
2018-07-28T11:26:58.456Z,948.63
2018-07-28T11:27:58.464Z,948.68
2018-07-28T11:28:58.470Z,948.68
2018-07-28T11:29:58.474Z,948.68
2018-07-28T11:30:58.481Z,948.64
2018-07-28T11:31:58.550Z,948.62
2018-07-28T11:32:58.494Z,948.6
2018-07-28T11:33:58.507Z,948.6
2018-07-28T11:34:58.508Z,948.58
2018-07-28T11:35:58.512Z,948.55
2018-07-28T11:36:58.518Z,948.57
2018-07-28T11:37:58.584Z,948.55
2018-07-28T11:38:58.532Z,948.5
2018-07-28T11:39:58.536Z,948.51
2018-07-28T11:40:58.543Z,948.5
2018-07-28T11:41:58.552Z,948.51
2018-07-28T11:42:58.557Z,948.53
2018-07-28T11:43:58.561Z,948.55
2018-07-28T11:44:58.574Z,948.55
2018-07-28T11:45:58.679Z,948.55
2018-07-28T11:46:58.582Z,948.52
2018-07-28T11:47:58.589Z,948.53
2018-07-28T11:48:58.597Z,948.5
2018-07-28T11:49:58.606Z,948.51
2018-07-28T11:50:58.608Z,948.48
2018-07-28T11:51:58.618Z,948.47
2018-07-28T11:52:58.621Z,948.46
2018-07-28T11:53:58.630Z,948.39
2018-07-28T11:54:58.635Z,948.47
2018-07-28T11:55:58.643Z,948.41
2018-07-28T11:56:58.648Z,948.4
2018-07-28T11:57:58.693Z,948.41
2018-07-28T11:58:58.662Z,948.4
2018-07-28T11:59:58.671Z,948.38
2018-07-28T12:00:58.677Z,948.33
2018-07-28T12:01:58.683Z,948.31
2018-07-28T12:02:58.697Z,948.29
2018-07-28T12:03:58.695Z,948.34
2018-07-28T12:04:58.703Z,948.32
2018-07-28T12:05:58.710Z,948.31
2018-07-28T12:06:58.724Z,948.37
2018-07-28T12:07:58.726Z,948.36
2018-07-28T12:08:58.729Z,948.33
2018-07-28T12:09:58.737Z,948.32
2018-07-28T12:10:58.746Z,948.29
2018-07-28T12:11:58.756Z,948.35
2018-07-28T12:12:58.758Z,948.36
2018-07-28T12:13:58.764Z,948.37
2018-07-28T12:14:58.772Z,948.33
2018-07-28T12:15:58.779Z,948.32
2018-07-28T12:16:58.787Z,948.36
2018-07-28T12:17:58.794Z,948.29
2018-07-28T12:18:58.801Z,948.31
2018-07-28T12:19:58.815Z,948.34
2018-07-28T12:20:58.814Z,948.39
2018-07-28T12:21:58.822Z,948.29
2018-07-28T12:22:58.829Z,948.35
2018-07-28T12:23:58.891Z,948.36
2018-07-28T12:24:58.841Z,948.34
2018-07-28T12:25:58.850Z,948.33
2018-07-28T12:26:58.856Z,948.39
2018-07-28T12:27:58.868Z,948.42
2018-07-28T12:28:58.869Z,948.38
2018-07-28T12:29:58.876Z,948.36
2018-07-28T12:30:58.883Z,948.34
2018-07-28T12:31:58.889Z,948.34